Altamont, North Carolina
Current Conditions -  °F | °C
As of 9:55 AM on Tuesday 21 Oct 2014 (Local Time) from KTNB Reporting Station
Scattered Clouds Scattered Clouds  
Wind Chill: 10°   Ceiling: Unl
Heat Index: 10°   Visibility: 10mi
Dew Point:   Wind: 5mph
Humidity: 77%   Direction: 280°W
Pressure: 29.99"   Gusts: NA
Location:  36.0227°N, 81.9499°W
Report Text: KTNB 211355Z AUTO 28004KT 10SM SCT016 SCT021 10/07 A2999 RMK AO2 T01030065
Loading
Personal Weather Stations






























Interactive Weather Map
Tropical Storm Tracking
New forecast layout! Learn more

10-Day Weather Forecast

Advertisements
Track Severe Weather on mobile